createdAt,value
2023-05-15T00:00:30.956Z,101422.77
2023-05-15T00:03:19.157Z,101423.52
2023-05-15T00:05:47.428Z,101418.76
2023-05-15T00:08:15.529Z,101416.20
2023-05-15T00:10:53.938Z,101413.90
2023-05-15T00:13:28.723Z,101407.72
2023-05-15T00:15:57.097Z,101404.27
2023-05-15T00:18:25.276Z,101406.50
2023-05-15T00:20:53.667Z,101402.19
2023-05-15T00:23:21.612Z,101404.47
2023-05-15T00:25:49.696Z,101403.37
2023-05-15T00:28:17.652Z,101404.48
2023-05-15T00:30:45.829Z,101399.19
2023-05-15T00:33:13.902Z,101392.45
2023-05-15T00:35:42.071Z,101390.17
2023-05-15T00:38:10.140Z,101387.10
2023-05-15T00:40:39.406Z,101381.02
2023-05-15T00:43:10.213Z,101377.41
2023-05-15T00:45:41.309Z,101376.38
2023-05-15T00:48:12.936Z,101370.96
2023-05-15T00:50:42.140Z,101372.56
2023-05-15T00:53:10.543Z,101370.05
2023-05-15T00:55:39.854Z,101364.65
2023-05-15T00:58:09.098Z,101357.05
2023-05-15T01:00:38.179Z,101358.31
2023-05-15T01:03:06.484Z,101353.76
2023-05-15T01:05:35.108Z,101356.29
2023-05-15T01:08:22.020Z,101352.87
2023-05-15T01:10:52.642Z,101353.09
2023-05-15T01:13:22.708Z,101351.77
2023-05-15T01:15:51.094Z,101346.50
2023-05-15T01:18:19.212Z,101349.05
2023-05-15T01:21:10.332Z,101347.52
2023-05-15T01:24:06.515Z,101343.36
2023-05-15T01:26:53.257Z,101343.25
2023-05-15T01:29:27.694Z,101337.66
2023-05-15T01:32:00.662Z,101338.36
2023-05-15T01:34:39.663Z,101336.23
2023-05-15T01:37:09.087Z,101333.83
2023-05-15T01:39:42.362Z,101327.63
2023-05-15T01:42:13.460Z,101325.84
2023-05-15T01:44:46.370Z,101323.51
2023-05-15T01:47:18.060Z,101322.65
2023-05-15T01:49:49.406Z,101319.45
2023-05-15T01:52:33.970Z,101320.84
2023-05-15T01:55:03.232Z,101311.56
2023-05-15T01:57:32.202Z,101311.65
2023-05-15T02:00:01.935Z,101308.42
2023-05-15T02:02:31.957Z,101304.68
2023-05-15T02:05:01.224Z,101309.05
2023-05-15T02:07:29.760Z,101304.27
2023-05-15T02:09:59.376Z,101304.14
2023-05-15T02:12:28.529Z,101306.92
2023-05-15T02:14:58.480Z,101309.93
2023-05-15T02:17:29.512Z,101301.05
2023-05-15T02:19:57.750Z,101296.21
2023-05-15T02:22:25.861Z,101296.27
2023-05-15T02:24:53.933Z,101288.69
2023-05-15T02:27:28.070Z,101284.24
2023-05-15T02:30:14.348Z,101283.59
2023-05-15T02:33:12.927Z,101280.50
2023-05-15T02:36:01.989Z,101277.06
2023-05-15T02:38:39.072Z,101271.04
2023-05-15T02:41:08.128Z,101262.36
2023-05-15T02:43:37.498Z,101261.69
2023-05-15T02:46:07.687Z,101259.82
2023-05-15T02:48:39.710Z,101261.31
2023-05-15T02:51:08.504Z,101261.50
2023-05-15T02:53:43.644Z,101257.07
2023-05-15T02:56:11.571Z,101249.83
2023-05-15T02:58:40.374Z,101247.81
2023-05-15T03:01:08.948Z,101241.85
2023-05-15T03:03:37.081Z,101237.39
2023-05-15T03:06:05.168Z,101235.76
2023-05-15T03:08:33.321Z,101240.29
2023-05-15T03:11:01.603Z,101238.55
2023-05-15T03:13:29.791Z,101238.23
2023-05-15T03:15:57.939Z,101231.36
2023-05-15T03:18:26.145Z,101231.54
2023-05-15T03:20:55.026Z,101231.61
2023-05-15T03:23:23.171Z,101226.00
2023-05-15T03:25:51.252Z,101222.55
2023-05-15T03:28:19.223Z,101222.61
2023-05-15T03:30:47.284Z,101225.26
2023-05-15T03:33:15.219Z,101223.70
2023-05-15T03:35:44.784Z,101217.08
2023-05-15T03:38:12.833Z,101215.38
2023-05-15T03:40:41.207Z,101215.48
2023-05-15T03:43:09.173Z,101214.02
2023-05-15T03:45:37.252Z,101209.67
2023-05-15T03:48:05.824Z,101198.43
2023-05-15T03:50:33.897Z,101192.43
2023-05-15T03:53:01.969Z,101185.54
2023-05-15T03:55:30.139Z,101188.09
2023-05-15T03:57:58.829Z,101185.02
2023-05-15T04:00:27.143Z,101182.49
2023-05-15T04:02:55.927Z,101175.95
2023-05-15T04:05:24.248Z,101179.17
2023-05-15T04:07:52.434Z,101178.28
2023-05-15T04:10:20.615Z,101184.20
2023-05-15T04:12:48.703Z,101179.33
2023-05-15T04:15:24.820Z,101180.54
2023-05-15T04:17:54.329Z,101179.65
2023-05-15T04:20:24.801Z,101181.92
2023-05-15T04:22:53.417Z,101181.39
2023-05-15T04:25:21.941Z,101174.67
2023-05-15T04:27:50.133Z,101172.48
2023-05-15T04:30:18.058Z,101166.39
2023-05-15T04:32:46.091Z,101167.25
2023-05-15T04:35:15.548Z,101163.35
2023-05-15T04:37:45.971Z,101150.38
2023-05-15T04:40:16.573Z,101150.98
2023-05-15T04:42:44.895Z,101153.34
2023-05-15T04:45:12.959Z,101154.11
2023-05-15T04:47:41.298Z,101158.34
2023-05-15T04:50:10.107Z,101163.41
2023-05-15T04:52:38.089Z,101157.95
2023-05-15T04:55:06.915Z,101152.80
2023-05-15T04:57:35.147Z,101153.49
2023-05-15T05:00:05.962Z,101146.60
2023-05-15T05:02:33.999Z,101143.63
2023-05-15T05:05:02.225Z,101145.31
2023-05-15T05:07:30.294Z,101140.06
2023-05-15T05:09:58.209Z,101133.42
2023-05-15T05:12:27.936Z,101133.22
2023-05-15T05:14:57.134Z,101127.50
2023-05-15T05:17:25.189Z,101129.60
2023-05-15T05:19:53.282Z,101125.10
2023-05-15T05:22:21.289Z,101124.74
2023-05-15T05:24:49.245Z,101128.66
2023-05-15T05:27:17.215Z,101130.69
2023-05-15T05:29:45.179Z,101124.46
2023-05-15T05:32:13.263Z,101124.50
2023-05-15T05:34:41.325Z,101123.61
2023-05-15T05:37:09.394Z,101107.38
2023-05-15T05:39:37.465Z,101109.31
2023-05-15T05:42:06.050Z,101114.97
2023-05-15T05:44:34.875Z,101114.72
2023-05-15T05:47:02.928Z,101111.20
2023-05-15T05:49:31.078Z,101113.15
2023-05-15T05:52:05.844Z,101112.33
2023-05-15T05:54:34.197Z,101114.42
2023-05-15T05:57:02.458Z,101119.52
2023-05-15T05:59:30.713Z,101123.95
2023-05-15T06:01:58.731Z,101126.17
2023-05-15T06:04:27.055Z,101118.80
2023-05-15T06:06:55.044Z,101084.21
2023-05-15T06:09:22.991Z,101119.30
2023-05-15T06:11:51.077Z,101111.39
2023-05-15T06:14:19.496Z,101110.88
2023-05-15T06:16:48.196Z,101115.86
2023-05-15T06:19:16.369Z,101114.18
2023-05-15T06:21:44.434Z,101107.61
2023-05-15T06:24:12.430Z,101108.23
2023-05-15T06:26:40.541Z,101102.25
2023-05-15T06:29:08.524Z,101099.17
2023-05-15T06:31:36.558Z,101089.55
2023-05-15T06:34:04.534Z,101086.27
2023-05-15T06:36:32.638Z,101090.94
2023-05-15T06:39:00.713Z,101088.85
2023-05-15T06:41:28.751Z,101087.29
2023-05-15T06:43:56.711Z,101085.40
2023-05-15T06:46:24.707Z,101086.73
2023-05-15T06:48:52.751Z,101083.00
2023-05-15T06:51:20.771Z,101082.38
2023-05-15T06:53:48.764Z,101099.95
2023-05-15T06:56:17.072Z,101062.38
2023-05-15T06:58:45.141Z,101045.42
2023-05-15T07:01:13.245Z,101067.06
2023-05-15T07:03:43.146Z,101052.05
2023-05-15T07:06:11.291Z,101048.61
2023-05-15T07:08:39.360Z,101048.65
2023-05-15T07:11:07.540Z,101047.34
2023-05-15T07:13:35.503Z,101038.44
2023-05-15T07:16:04.158Z,101035.52
2023-05-15T07:18:32.337Z,101037.61
2023-05-15T07:21:00.838Z,101037.28
2023-05-15T07:23:29.016Z,101033.63
2023-05-15T07:25:57.091Z,101037.73
2023-05-15T07:28:25.151Z,101049.56
2023-05-15T07:30:53.224Z,101052.47
2023-05-15T07:33:21.301Z,101049.04
2023-05-15T07:35:51.006Z,101052.08
2023-05-15T07:38:19.056Z,101052.46
2023-05-15T07:40:47.041Z,101047.80
2023-05-15T07:43:15.011Z,101046.57
2023-05-15T07:45:43.305Z,101041.88
2023-05-15T07:48:15.990Z,101040.36
2023-05-15T07:50:48.945Z,101039.68
2023-05-15T07:53:17.021Z,101036.33
2023-05-15T07:55:45.191Z,101033.19
2023-05-15T07:58:13.162Z,101035.59
2023-05-15T08:00:41.452Z,101038.02
2023-05-15T08:03:11.125Z,101039.36
2023-05-15T08:05:39.336Z,101039.45
2023-05-15T08:08:07.389Z,101029.52
2023-05-15T08:10:35.560Z,101033.34
2023-05-15T08:13:03.629Z,101034.14
2023-05-15T08:15:31.805Z,101023.96
2023-05-15T08:17:59.896Z,101032.68
2023-05-15T08:20:27.968Z,101030.70
2023-05-15T08:22:55.968Z,101019.73
2023-05-15T08:25:24.155Z,101027.49
2023-05-15T08:27:52.274Z,101025.67
2023-05-15T08:30:20.427Z,101017.95
2023-05-15T08:32:49.319Z,101010.74
2023-05-15T08:35:17.400Z,101002.38
2023-05-15T08:37:45.577Z,100998.36
2023-05-15T08:40:14.168Z,101005.88
2023-05-15T08:42:45.645Z,101007.70
2023-05-15T08:45:14.382Z,101009.09
2023-05-15T08:47:43.588Z,101001.02
2023-05-15T08:50:16.625Z,101001.60
2023-05-15T08:52:48.509Z,100999.27
2023-05-15T08:55:17.431Z,101000.16
2023-05-15T08:57:48.052Z,100994.20
2023-05-15T09:00:21.151Z,100998.63
2023-05-15T09:02:49.295Z,100992.31
2023-05-15T09:05:17.480Z,100991.55
2023-05-15T09:07:46.421Z,100987.40
2023-05-15T09:10:15.256Z,100986.98
2023-05-15T09:12:44.662Z,100996.52
2023-05-15T09:15:18.216Z,100995.17
2023-05-15T09:17:46.588Z,100999.63
2023-05-15T09:20:31.336Z,101001.54
2023-05-15T09:23:01.519Z,100991.02
2023-05-15T09:25:41.087Z,100997.75
2023-05-15T09:28:11.214Z,100996.67
2023-05-15T09:30:42.710Z,100991.38
2023-05-15T09:33:12.271Z,100993.88
2023-05-15T09:35:41.231Z,101001.31
2023-05-15T09:38:11.930Z,101012.46
2023-05-15T09:40:43.444Z,101006.89
2023-05-15T09:43:14.644Z,100999.19
2023-05-15T09:45:43.341Z,101010.67
2023-05-15T09:48:12.445Z,101003.27
2023-05-15T09:50:42.145Z,101000.54
2023-05-15T09:53:12.999Z,100996.60
2023-05-15T09:55:43.176Z,100996.95
2023-05-15T09:58:13.429Z,100998.77
2023-05-15T10:00:47.844Z,100996.16
2023-05-15T10:03:21.540Z,100988.69
2023-05-15T10:05:49.813Z,100971.65
2023-05-15T10:08:27.776Z,100958.09
2023-05-15T10:10:59.852Z,100944.66
2023-05-15T10:13:31.603Z,100931.21
2023-05-15T10:16:02.423Z,100921.36
2023-05-15T10:18:31.866Z,100916.98
2023-05-15T10:21:04.435Z,100913.22
2023-05-15T10:23:36.026Z,100909.08
2023-05-15T10:26:14.485Z,100903.83
2023-05-15T10:28:44.971Z,100893.77
2023-05-15T10:31:14.057Z,100888.11
2023-05-15T10:33:43.475Z,100891.23
2023-05-15T10:36:13.008Z,100886.61
2023-05-15T10:38:41.637Z,100881.33
2023-05-15T10:41:17.584Z,100878.84
2023-05-15T10:43:47.047Z,100882.52
2023-05-15T10:46:16.326Z,100876.14
2023-05-15T10:48:44.479Z,100871.50
2023-05-15T10:51:24.511Z,100862.77
2023-05-15T10:53:52.953Z,100861.23
2023-05-15T10:56:21.638Z,100854.69
2023-05-15T10:58:51.716Z,100847.01
2023-05-15T11:01:28.109Z,100843.91
2023-05-15T11:04:17.271Z,100841.73
2023-05-15T11:06:50.305Z,100841.89
2023-05-15T11:09:28.097Z,100844.83
2023-05-15T11:11:58.960Z,100851.59
2023-05-15T11:14:27.798Z,100852.42
2023-05-15T11:16:55.954Z,100852.31
2023-05-15T11:19:59.606Z,100847.64
2023-05-15T11:22:31.218Z,100843.78
2023-05-15T11:25:10.631Z,100845.84
2023-05-15T11:27:44.256Z,100842.45
2023-05-15T11:30:36.426Z,100842.66
2023-05-15T11:33:11.569Z,100836.21
2023-05-15T11:35:43.837Z,100834.02
2023-05-15T11:38:17.015Z,100833.39
2023-05-15T11:40:56.678Z,100823.06
2023-05-15T11:43:26.021Z,100823.30
2023-05-15T11:46:07.054Z,100815.53
2023-05-15T11:48:43.290Z,100821.71
2023-05-15T11:51:21.561Z,100818.91
2023-05-15T11:53:51.639Z,100818.77
2023-05-15T11:56:22.871Z,100817.55
2023-05-15T11:59:01.348Z,100815.59
2023-05-15T12:01:43.401Z,100818.95
2023-05-15T12:04:18.758Z,100824.38
2023-05-15T12:06:49.740Z,100820.09
2023-05-15T12:09:19.591Z,100812.88
2023-05-15T12:11:55.539Z,100810.71
2023-05-15T12:14:28.938Z,100807.83
2023-05-15T12:17:03.084Z,100810.09
2023-05-15T12:19:31.937Z,100816.52
2023-05-15T12:21:59.916Z,100817.19
2023-05-15T12:24:27.970Z,100819.63
2023-05-15T12:26:57.504Z,100817.88
2023-05-15T12:29:26.937Z,100821.77
2023-05-15T12:31:55.304Z,100820.94
2023-05-15T12:34:23.431Z,100823.64
2023-05-15T12:36:51.497Z,100837.02
2023-05-15T12:39:19.568Z,100829.13
2023-05-15T12:41:49.115Z,100834.38
2023-05-15T12:44:18.656Z,100834.73
2023-05-15T12:46:47.956Z,100833.87
2023-05-15T12:49:22.721Z,100823.61
2023-05-15T12:51:50.772Z,100821.40
2023-05-15T12:54:21.715Z,100823.20
2023-05-15T12:56:50.086Z,100824.68
2023-05-15T12:59:18.978Z,100826.61
2023-05-15T13:01:47.215Z,100820.37
2023-05-15T13:04:16.450Z,100811.05
2023-05-15T13:06:47.576Z,100811.36
2023-05-15T13:09:22.787Z,100800.52
2023-05-15T13:11:50.960Z,100811.41
2023-05-15T13:14:19.783Z,100806.75
2023-05-15T13:16:47.990Z,100807.55
2023-05-15T13:19:17.056Z,100798.92
2023-05-15T13:21:45.804Z,100798.73
2023-05-15T13:24:13.747Z,100786.13
2023-05-15T13:26:42.079Z,100791.52
2023-05-15T13:29:10.003Z,100785.88
2023-05-15T13:31:38.073Z,100784.89
2023-05-15T13:34:06.580Z,100787.44
2023-05-15T13:36:34.470Z,100777.93
2023-05-15T13:39:02.439Z,100773.15
2023-05-15T13:41:30.507Z,100765.09
2023-05-15T13:43:58.475Z,100768.27
2023-05-15T13:46:26.574Z,100760.85
2023-05-15T13:48:54.534Z,100753.80
2023-05-15T13:51:22.581Z,100747.73
2023-05-15T13:53:50.616Z,100741.64
2023-05-15T13:56:18.661Z,100742.28
2023-05-15T13:58:46.590Z,100733.67
2023-05-15T14:01:14.735Z,100728.40
2023-05-15T14:03:42.868Z,100722.95
2023-05-15T14:06:10.963Z,100719.42
2023-05-15T14:08:39.043Z,100713.11
2023-05-15T14:11:07.413Z,100717.66
2023-05-15T14:13:35.852Z,100704.02
2023-05-15T14:16:04.085Z,100702.60
2023-05-15T14:18:32.312Z,100690.59
2023-05-15T14:21:00.455Z,100686.12
2023-05-15T14:23:28.525Z,100687.86
2023-05-15T14:25:56.464Z,100677.69
2023-05-15T14:28:25.070Z,100672.36
2023-05-15T14:30:53.152Z,100677.70
2023-05-15T14:33:21.246Z,100668.04
2023-05-15T14:35:49.203Z,100662.02
2023-05-15T14:38:17.577Z,100662.06
2023-05-15T14:40:45.626Z,100653.77
2023-05-15T14:43:13.590Z,100660.62
2023-05-15T14:45:41.568Z,100650.42
2023-05-15T14:48:11.868Z,100644.52
2023-05-15T14:50:39.955Z,100642.57
2023-05-15T14:53:08.130Z,100646.42
2023-05-15T14:55:36.200Z,100634.71
2023-05-15T14:58:04.168Z,100637.12
2023-05-15T15:00:32.438Z,100633.13
2023-05-15T15:03:02.777Z,100631.27
2023-05-15T15:05:30.942Z,100631.11
2023-05-15T15:08:05.945Z,100629.98
2023-05-15T15:10:36.497Z,100627.98
2023-05-15T15:13:05.385Z,100626.24
2023-05-15T15:15:34.992Z,100628.23
2023-05-15T15:18:03.300Z,100622.98
2023-05-15T15:20:31.771Z,100619.37
2023-05-15T15:22:59.816Z,100614.91
2023-05-15T15:25:28.231Z,100608.68
2023-05-15T15:27:57.391Z,100600.84
2023-05-15T15:30:25.784Z,100594.42
2023-05-15T15:32:54.983Z,100591.98
2023-05-15T15:35:23.447Z,100586.84
2023-05-15T15:37:52.103Z,100586.13
2023-05-15T15:40:20.675Z,100585.52
2023-05-15T15:42:48.700Z,100573.39
2023-05-15T15:45:16.711Z,100568.06
2023-05-15T15:47:44.882Z,100566.32
2023-05-15T15:50:12.905Z,100569.14
2023-05-15T15:52:40.978Z,100568.14
2023-05-15T15:55:10.007Z,100559.92
2023-05-15T15:57:38.234Z,100557.96
2023-05-15T16:00:08.317Z,100554.64
2023-05-15T16:02:37.054Z,100544.86
2023-05-15T16:05:05.939Z,100544.73
2023-05-15T16:07:34.513Z,100541.08
2023-05-15T16:10:11.476Z,100535.94
2023-05-15T16:12:42.532Z,100535.33
2023-05-15T16:17:46.070Z,100531.73
2023-05-15T16:20:14.318Z,100532.77
2023-05-15T16:22:43.505Z,100524.19
2023-05-15T16:25:11.583Z,100522.56
2023-05-15T16:27:39.786Z,100520.63
2023-05-15T16:30:09.465Z,100518.84
2023-05-15T16:32:37.767Z,100514.11
2023-05-15T16:35:06.537Z,100507.08
2023-05-15T16:37:34.608Z,100508.55
2023-05-15T16:40:03.188Z,100507.14
2023-05-15T16:42:36.035Z,100506.96
2023-05-15T16:45:05.547Z,100504.25
2023-05-15T16:47:34.189Z,100498.36
2023-05-15T16:50:02.567Z,100499.17
2023-05-15T16:52:30.703Z,100501.73
2023-05-15T16:54:58.783Z,100500.86
2023-05-15T16:57:27.119Z,100500.59
2023-05-15T16:59:55.122Z,100497.62
2023-05-15T17:02:23.235Z,100493.91
2023-05-15T17:04:51.571Z,100495.61
2023-05-15T17:07:20.767Z,100493.14
2023-05-15T17:09:48.827Z,100490.56
2023-05-15T17:12:17.066Z,100491.76
2023-05-15T17:14:45.079Z,100496.68
2023-05-15T17:17:13.142Z,100498.07
2023-05-15T17:19:41.114Z,100485.84
2023-05-15T17:22:09.179Z,100487.70
2023-05-15T17:24:50.013Z,100489.08
2023-05-15T17:27:20.138Z,100480.52
2023-05-15T17:29:48.657Z,100480.45
2023-05-15T17:32:17.717Z,100484.99
2023-05-15T17:34:46.709Z,100485.63
2023-05-15T17:37:15.141Z,100485.27
2023-05-15T17:39:43.488Z,100484.17
2023-05-15T17:42:11.666Z,100478.33
2023-05-15T17:44:39.772Z,100479.86
2023-05-15T17:47:08.645Z,100473.61
2023-05-15T17:49:37.929Z,100475.84
2023-05-15T17:52:08.251Z,100470.90
2023-05-15T17:54:36.317Z,100468.46
2023-05-15T17:57:04.964Z,100465.67
2023-05-15T17:59:33.282Z,100464.42
2023-05-15T18:02:01.293Z,100461.09
2023-05-15T18:04:29.558Z,100458.97
2023-05-15T18:06:57.598Z,100455.73
2023-05-15T18:09:26.117Z,100447.95
2023-05-15T18:11:54.064Z,100451.26
2023-05-15T18:14:22.107Z,100448.89
2023-05-15T18:16:51.150Z,100447.63
2023-05-15T18:19:19.537Z,100449.94
2023-05-15T18:21:47.771Z,100444.91
2023-05-15T18:24:15.924Z,100446.27
2023-05-15T18:26:43.999Z,100447.29
2023-05-15T18:29:11.979Z,100445.66
2023-05-15T18:31:40.008Z,100448.67
2023-05-15T18:34:08.216Z,100445.79
2023-05-15T18:36:36.275Z,100446.30
2023-05-15T18:39:04.359Z,100444.38
2023-05-15T18:41:32.827Z,100442.77
2023-05-15T18:44:01.120Z,100447.81
2023-05-15T18:46:31.267Z,100445.16
2023-05-15T18:49:00.142Z,100440.08
2023-05-15T18:51:28.117Z,100441.44
2023-05-15T18:53:56.154Z,100443.14
2023-05-15T18:56:25.272Z,100443.79
2023-05-15T18:58:54.597Z,100436.98
2023-05-15T19:01:22.626Z,100439.96
2023-05-15T19:03:51.285Z,100442.02
2023-05-15T19:06:20.332Z,100436.91
2023-05-15T19:08:49.251Z,100440.05
2023-05-15T19:11:17.568Z,100440.02
2023-05-15T19:13:45.650Z,100439.90
2023-05-15T19:16:13.930Z,100436.73
2023-05-15T19:18:42.021Z,100429.39
2023-05-15T19:21:10.456Z,100431.13
2023-05-15T19:23:38.537Z,100428.45
2023-05-15T19:26:06.604Z,100420.68
2023-05-15T19:28:34.978Z,100418.17
2023-05-15T19:31:04.493Z,100417.82
2023-05-15T19:33:34.700Z,100414.56
2023-05-15T19:36:02.779Z,100412.60
2023-05-15T19:38:30.944Z,100408.49
2023-05-15T19:40:59.217Z,100407.91
2023-05-15T19:43:27.803Z,100408.20
2023-05-15T19:45:55.905Z,100411.00
2023-05-15T19:48:24.214Z,100403.29
2023-05-15T19:50:52.417Z,100401.37
2023-05-15T19:53:20.938Z,100394.86
2023-05-15T19:55:49.478Z,100395.74
2023-05-15T19:58:17.447Z,100398.91
2023-05-15T20:00:46.337Z,100393.46
2023-05-15T20:03:14.420Z,100389.28
2023-05-15T20:05:42.576Z,100391.41
2023-05-15T20:08:11.158Z,100394.76
2023-05-15T20:10:39.129Z,100397.33
2023-05-15T20:13:07.360Z,100389.94
2023-05-15T20:15:40.126Z,100391.14
2023-05-15T20:18:08.431Z,100386.14
2023-05-15T20:20:36.845Z,100386.86
2023-05-15T20:23:04.905Z,100386.52
2023-05-15T20:25:33.183Z,100380.81
2023-05-15T20:28:01.459Z,100386.30
2023-05-15T20:30:29.838Z,100387.29
2023-05-15T20:32:58.370Z,100384.05
2023-05-15T20:35:27.034Z,100384.58
2023-05-15T20:37:56.480Z,100384.09
2023-05-15T20:40:28.262Z,100392.16
2023-05-15T20:42:57.219Z,100390.86
2023-05-15T20:45:25.937Z,100393.81
2023-05-15T20:47:54.064Z,100388.38
2023-05-15T20:50:22.396Z,100391.48
2023-05-15T20:52:50.765Z,100390.52
2023-05-15T20:55:20.443Z,100389.70
2023-05-15T20:57:49.477Z,100384.35
2023-05-15T21:00:18.391Z,100388.13
2023-05-15T21:02:46.948Z,100382.81
2023-05-15T21:05:15.139Z,100380.70
2023-05-15T21:07:43.185Z,100380.41
2023-05-15T21:10:11.807Z,100372.35
2023-05-15T21:12:40.893Z,100374.84
2023-05-15T21:15:09.605Z,100373.38
2023-05-15T21:17:37.643Z,100370.23
2023-05-15T21:20:06.667Z,100365.55
2023-05-15T21:22:34.850Z,100365.05
2023-05-15T21:25:03.161Z,100366.80
2023-05-15T21:27:31.129Z,100361.67
2023-05-15T21:29:59.200Z,100357.96
2023-05-15T21:32:27.320Z,100362.62
2023-05-15T21:34:55.332Z,100365.45
2023-05-15T21:37:23.314Z,100363.98
2023-05-15T21:39:51.323Z,100365.16
2023-05-15T21:42:19.245Z,100359.84
2023-05-15T21:44:47.208Z,100359.01
2023-05-15T21:47:15.177Z,100355.55
2023-05-15T21:49:43.147Z,100355.00
2023-05-15T21:52:11.419Z,100353.61
2023-05-15T21:54:39.504Z,100356.47
2023-05-15T21:57:07.439Z,100359.06
2023-05-15T21:59:35.631Z,100350.61
2023-05-15T22:02:03.770Z,100349.23
2023-05-15T22:04:31.977Z,100348.30
2023-05-15T22:06:59.941Z,100346.70
2023-05-15T22:09:27.916Z,100343.81
2023-05-15T22:11:56.079Z,100346.88
2023-05-15T22:14:24.025Z,100347.81
2023-05-15T22:16:52.050Z,100348.00
2023-05-15T22:19:32.088Z,100347.58
2023-05-15T22:22:03.591Z,100346.09
2023-05-15T22:24:31.601Z,100348.34
2023-05-15T22:26:59.862Z,100347.02
2023-05-15T22:29:27.789Z,100344.23
2023-05-15T22:31:56.960Z,100345.42
2023-05-15T22:34:28.917Z,100339.63
2023-05-15T22:36:56.866Z,100335.38
2023-05-15T22:39:24.832Z,100333.97
2023-05-15T22:41:52.900Z,100335.55
2023-05-15T22:44:20.962Z,100329.92
2023-05-15T22:46:48.930Z,100328.46
2023-05-15T22:49:23.758Z,100328.59
2023-05-15T22:51:52.491Z,100329.83
2023-05-15T22:54:22.252Z,100327.47
2023-05-15T22:56:52.801Z,100320.72
2023-05-15T22:59:21.768Z,100314.68
2023-05-15T23:01:50.087Z,100314.09
2023-05-15T23:04:18.330Z,100311.23
2023-05-15T23:06:46.808Z,100311.21
2023-05-15T23:09:15.288Z,100306.95
2023-05-15T23:11:43.358Z,100305.66
2023-05-15T23:14:12.253Z,100306.36
2023-05-15T23:16:40.191Z,100308.67
2023-05-15T23:19:08.324Z,100308.45
2023-05-15T23:21:36.850Z,100309.13
2023-05-15T23:24:05.348Z,100309.33
2023-05-15T23:26:33.320Z,100308.33
2023-05-15T23:29:01.299Z,100310.01
2023-05-15T23:31:29.494Z,100310.70
2023-05-15T23:33:57.640Z,100310.05
2023-05-15T23:36:25.804Z,100308.55
2023-05-15T23:38:53.767Z,100305.29
2023-05-15T23:41:23.087Z,100303.71
2023-05-15T23:43:51.347Z,100304.19
2023-05-15T23:46:19.485Z,100302.02
2023-05-15T23:48:47.698Z,100301.09
2023-05-15T23:51:15.872Z,100299.49
2023-05-15T23:53:43.834Z,100296.77
2023-05-15T23:56:11.800Z,100299.51
2023-05-15T23:58:39.788Z,100294.23
